sensor_id;sensor_type;location;lat;lon;timestamp;P1;durP1;ratioP1;P2;durP2;ratioP2
52674;SDS011;38569;52.722;6.440;2022-12-07T00:01:07;7.82;;;1.80;;
52674;SDS011;38569;52.722;6.440;2022-12-07T00:03:35;5.55;;;2.10;;
52674;SDS011;38569;52.722;6.440;2022-12-07T00:06:02;6.13;;;2.55;;
52674;SDS011;38569;52.722;6.440;2022-12-07T00:08:29;9.43;;;1.70;;
52674;SDS011;38569;52.722;6.440;2022-12-07T00:10:55;6.40;;;1.90;;
52674;SDS011;38569;52.722;6.440;2022-12-07T00:13:29;4.68;;;2.33;;
52674;SDS011;38569;52.722;6.440;2022-12-07T00:15:55;5.80;;;1.85;;
52674;SDS011;38569;52.722;6.440;2022-12-07T00:18:25;11.32;;;2.25;;
52674;SDS011;38569;52.722;6.440;2022-12-07T00:20:50;8.90;;;2.15;;
52674;SDS011;38569;52.722;6.440;2022-12-07T00:23:16;9.20;;;2.55;;
52674;SDS011;38569;52.722;6.440;2022-12-07T00:25:41;9.70;;;2.05;;
52674;SDS011;38569;52.722;6.440;2022-12-07T00:28:07;20.52;;;2.85;;
52674;SDS011;38569;52.722;6.440;2022-12-07T00:30:34;11.95;;;2.47;;
52674;SDS011;38569;52.722;6.440;2022-12-07T00:33:00;9.85;;;2.10;;
52674;SDS011;38569;52.722;6.440;2022-12-07T00:35:25;6.90;;;2.38;;
52674;SDS011;38569;52.722;6.440;2022-12-07T00:37:51;7.00;;;2.83;;
52674;SDS011;38569;52.722;6.440;2022-12-07T00:40:17;7.88;;;2.33;;
52674;SDS011;38569;52.722;6.440;2022-12-07T00:42:42;14.13;;;2.55;;
52674;SDS011;38569;52.722;6.440;2022-12-07T00:45:08;7.85;;;2.13;;
52674;SDS011;38569;52.722;6.440;2022-12-07T00:47:34;9.60;;;2.90;;
52674;SDS011;38569;52.722;6.440;2022-12-07T00:49:59;13.88;;;2.47;;
52674;SDS011;38569;52.722;6.440;2022-12-07T00:52:25;8.57;;;2.28;;
52674;SDS011;38569;52.722;6.440;2022-12-07T00:54:51;5.50;;;2.10;;
52674;SDS011;38569;52.722;6.440;2022-12-07T00:57:16;11.82;;;2.28;;
52674;SDS011;38569;52.722;6.440;2022-12-07T00:59:42;10.50;;;2.40;;
52674;SDS011;38569;52.722;6.440;2022-12-07T01:02:08;9.82;;;2.38;;
52674;SDS011;38569;52.722;6.440;2022-12-07T01:04:34;8.18;;;2.33;;
52674;SDS011;38569;52.722;6.440;2022-12-07T01:06:59;13.35;;;2.72;;
52674;SDS011;38569;52.722;6.440;2022-12-07T01:09:25;13.70;;;2.50;;
52674;SDS011;38569;52.722;6.440;2022-12-07T01:11:51;7.32;;;2.75;;
52674;SDS011;38569;52.722;6.440;2022-12-07T01:14:16;9.63;;;2.22;;
52674;SDS011;38569;52.722;6.440;2022-12-07T01:16:43;8.25;;;3.17;;
52674;SDS011;38569;52.722;6.440;2022-12-07T01:19:09;8.90;;;2.05;;
52674;SDS011;38569;52.722;6.440;2022-12-07T01:21:34;13.48;;;2.20;;
52674;SDS011;38569;52.722;6.440;2022-12-07T01:24:03;15.07;;;2.42;;
52674;SDS011;38569;52.722;6.440;2022-12-07T01:26:29;7.55;;;2.15;;
52674;SDS011;38569;52.722;6.440;2022-12-07T01:28:58;5.75;;;2.10;;
52674;SDS011;38569;52.722;6.440;2022-12-07T01:31:25;13.38;;;2.33;;
52674;SDS011;38569;52.722;6.440;2022-12-07T01:33:53;7.88;;;2.30;;
52674;SDS011;38569;52.722;6.440;2022-12-07T01:36:27;10.20;;;2.20;;
52674;SDS011;38569;52.722;6.440;2022-12-07T01:38:57;8.43;;;2.05;;
52674;SDS011;38569;52.722;6.440;2022-12-07T01:41:25;9.98;;;2.10;;
52674;SDS011;38569;52.722;6.440;2022-12-07T01:46:38;7.90;;;2.08;;
52674;SDS011;38569;52.722;6.440;2022-12-07T01:49:08;16.65;;;2.20;;
52674;SDS011;38569;52.722;6.440;2022-12-07T01:51:38;8.93;;;2.13;;
52674;SDS011;38569;52.722;6.440;2022-12-07T01:54:07;10.77;;;2.00;;
52674;SDS011;38569;52.722;6.440;2022-12-07T01:56:35;8.80;;;1.77;;
52674;SDS011;38569;52.722;6.440;2022-12-07T01:59:02;9.55;;;2.30;;
52674;SDS011;38569;52.722;6.440;2022-12-07T02:01:28;11.50;;;2.47;;
52674;SDS011;38569;52.722;6.440;2022-12-07T02:03:54;5.47;;;1.92;;
52674;SDS011;38569;52.722;6.440;2022-12-07T02:06:22;9.23;;;2.10;;
52674;SDS011;38569;52.722;6.440;2022-12-07T02:08:49;11.48;;;2.95;;
52674;SDS011;38569;52.722;6.440;2022-12-07T02:11:15;11.35;;;2.55;;
52674;SDS011;38569;52.722;6.440;2022-12-07T02:13:42;6.20;;;1.95;;
52674;SDS011;38569;52.722;6.440;2022-12-07T02:24:05;11.85;;;2.45;;
52674;SDS011;38569;52.722;6.440;2022-12-07T02:27:31;8.00;;;1.88;;
52674;SDS011;38569;52.722;6.440;2022-12-07T02:29:57;7.25;;;1.63;;
52674;SDS011;38569;52.722;6.440;2022-12-07T02:32:33;17.08;;;3.67;;
52674;SDS011;38569;52.722;6.440;2022-12-07T02:35:07;8.52;;;1.92;;
52674;SDS011;38569;52.722;6.440;2022-12-07T02:40:20;5.75;;;2.00;;
52674;SDS011;38569;52.722;6.440;2022-12-07T02:42:57;13.93;;;2.38;;
52674;SDS011;38569;52.722;6.440;2022-12-07T02:45:31;7.20;;;2.00;;
52674;SDS011;38569;52.722;6.440;2022-12-07T02:48:01;12.10;;;2.20;;
52674;SDS011;38569;52.722;6.440;2022-12-07T02:50:28;10.27;;;2.20;;
52674;SDS011;38569;52.722;6.440;2022-12-07T02:52:54;12.50;;;2.50;;
52674;SDS011;38569;52.722;6.440;2022-12-07T02:55:26;7.28;;;2.08;;
52674;SDS011;38569;52.722;6.440;2022-12-07T02:58:11;6.78;;;1.55;;
52674;SDS011;38569;52.722;6.440;2022-12-07T03:00:52;13.68;;;2.40;;
52674;SDS011;38569;52.722;6.440;2022-12-07T03:03:30;11.57;;;2.10;;
52674;SDS011;38569;52.722;6.440;2022-12-07T03:09:05;9.02;;;1.65;;
52674;SDS011;38569;52.722;6.440;2022-12-07T03:12:05;11.38;;;2.10;;
52674;SDS011;38569;52.722;6.440;2022-12-07T03:14:38;15.93;;;2.67;;
52674;SDS011;38569;52.722;6.440;2022-12-07T03:17:18;11.40;;;2.05;;
52674;SDS011;38569;52.722;6.440;2022-12-07T03:19:51;12.55;;;2.33;;
52674;SDS011;38569;52.722;6.440;2022-12-07T03:22:22;12.18;;;1.55;;
52674;SDS011;38569;52.722;6.440;2022-12-07T03:24:50;10.90;;;2.85;;
52674;SDS011;38569;52.722;6.440;2022-12-07T03:27:21;8.88;;;2.10;;
52674;SDS011;38569;52.722;6.440;2022-12-07T03:29:52;10.38;;;1.85;;
52674;SDS011;38569;52.722;6.440;2022-12-07T03:35:05;14.68;;;2.20;;
52674;SDS011;38569;52.722;6.440;2022-12-07T03:40:25;16.92;;;2.30;;
52674;SDS011;38569;52.722;6.440;2022-12-07T03:43:04;10.30;;;1.73;;
52674;SDS011;38569;52.722;6.440;2022-12-07T03:46:14;11.98;;;2.33;;
52674;SDS011;38569;52.722;6.440;2022-12-07T03:48:42;8.10;;;2.10;;
52674;SDS011;38569;52.722;6.440;2022-12-07T03:54:18;9.85;;;1.90;;
52674;SDS011;38569;52.722;6.440;2022-12-07T03:56:51;11.23;;;3.67;;
52674;SDS011;38569;52.722;6.440;2022-12-07T03:59:18;11.05;;;1.65;;
52674;SDS011;38569;52.722;6.440;2022-12-07T04:01:45;13.35;;;2.00;;
52674;SDS011;38569;52.722;6.440;2022-12-07T04:04:18;9.05;;;2.05;;
52674;SDS011;38569;52.722;6.440;2022-12-07T04:06:44;9.90;;;1.65;;
52674;SDS011;38569;52.722;6.440;2022-12-07T04:09:09;10.30;;;1.83;;
52674;SDS011;38569;52.722;6.440;2022-12-07T04:11:35;8.70;;;2.03;;
52674;SDS011;38569;52.722;6.440;2022-12-07T04:14:00;14.30;;;2.95;;
52674;SDS011;38569;52.722;6.440;2022-12-07T04:16:45;8.90;;;1.67;;
52674;SDS011;38569;52.722;6.440;2022-12-07T04:19:19;14.48;;;2.08;;
52674;SDS011;38569;52.722;6.440;2022-12-07T04:21:46;13.68;;;2.03;;
52674;SDS011;38569;52.722;6.440;2022-12-07T04:24:13;6.55;;;1.60;;
52674;SDS011;38569;52.722;6.440;2022-12-07T04:26:40;10.75;;;2.05;;
52674;SDS011;38569;52.722;6.440;2022-12-07T04:29:06;16.17;;;1.83;;
52674;SDS011;38569;52.722;6.440;2022-12-07T04:31:32;8.30;;;1.60;;
52674;SDS011;38569;52.722;6.440;2022-12-07T04:33:59;7.82;;;1.80;;
52674;SDS011;38569;52.722;6.440;2022-12-07T04:36:24;13.48;;;2.47;;
52674;SDS011;38569;52.722;6.440;2022-12-07T04:38:52;7.70;;;1.73;;
52674;SDS011;38569;52.722;6.440;2022-12-07T04:41:19;20.20;;;3.15;;
52674;SDS011;38569;52.722;6.440;2022-12-07T04:43:55;12.90;;;1.60;;
52674;SDS011;38569;52.722;6.440;2022-12-07T04:46:23;18.58;;;2.03;;
52674;SDS011;38569;52.722;6.440;2022-12-07T04:48:50;8.48;;;1.73;;
52674;SDS011;38569;52.722;6.440;2022-12-07T04:51:18;17.10;;;1.85;;
52674;SDS011;38569;52.722;6.440;2022-12-07T04:53:48;13.55;;;2.13;;
52674;SDS011;38569;52.722;6.440;2022-12-07T04:56:14;10.43;;;2.08;;
52674;SDS011;38569;52.722;6.440;2022-12-07T04:58:41;11.93;;;1.77;;
52674;SDS011;38569;52.722;6.440;2022-12-07T05:01:08;6.10;;;2.08;;
52674;SDS011;38569;52.722;6.440;2022-12-07T05:03:35;5.53;;;1.35;;
52674;SDS011;38569;52.722;6.440;2022-12-07T05:06:01;11.05;;;1.83;;
52674;SDS011;38569;52.722;6.440;2022-12-07T05:08:27;7.28;;;2.08;;
52674;SDS011;38569;52.722;6.440;2022-12-07T05:10:53;13.77;;;2.40;;
52674;SDS011;38569;52.722;6.440;2022-12-07T05:13:19;15.85;;;1.73;;
52674;SDS011;38569;52.722;6.440;2022-12-07T05:15:46;10.93;;;1.80;;
52674;SDS011;38569;52.722;6.440;2022-12-07T05:18:12;16.23;;;2.10;;
52674;SDS011;38569;52.722;6.440;2022-12-07T05:20:38;15.73;;;2.13;;
52674;SDS011;38569;52.722;6.440;2022-12-07T05:23:04;10.63;;;1.95;;
52674;SDS011;38569;52.722;6.440;2022-12-07T05:25:30;11.60;;;2.17;;
52674;SDS011;38569;52.722;6.440;2022-12-07T05:27:56;6.03;;;1.60;;
52674;SDS011;38569;52.722;6.440;2022-12-07T05:30:22;6.90;;;1.38;;
52674;SDS011;38569;52.722;6.440;2022-12-07T05:32:49;11.30;;;2.13;;
52674;SDS011;38569;52.722;6.440;2022-12-07T05:35:15;6.70;;;1.50;;
52674;SDS011;38569;52.722;6.440;2022-12-07T05:37:41;11.98;;;1.88;;
52674;SDS011;38569;52.722;6.440;2022-12-07T05:40:07;11.10;;;2.65;;
52674;SDS011;38569;52.722;6.440;2022-12-07T05:42:37;12.43;;;1.50;;
52674;SDS011;38569;52.722;6.440;2022-12-07T05:45:03;8.68;;;1.65;;
52674;SDS011;38569;52.722;6.440;2022-12-07T05:47:29;9.43;;;1.98;;
52674;SDS011;38569;52.722;6.440;2022-12-07T05:49:55;18.85;;;2.80;;
52674;SDS011;38569;52.722;6.440;2022-12-07T05:52:21;12.20;;;2.58;;
52674;SDS011;38569;52.722;6.440;2022-12-07T05:54:47;11.00;;;1.60;;
52674;SDS011;38569;52.722;6.440;2022-12-07T05:57:12;15.57;;;1.90;;
52674;SDS011;38569;52.722;6.440;2022-12-07T05:59:38;12.98;;;2.65;;
52674;SDS011;38569;52.722;6.440;2022-12-07T06:02:11;7.32;;;2.35;;
52674;SDS011;38569;52.722;6.440;2022-12-07T06:04:40;8.07;;;1.33;;
52674;SDS011;38569;52.722;6.440;2022-12-07T06:07:08;10.35;;;1.65;;
52674;SDS011;38569;52.722;6.440;2022-12-07T06:09:34;14.70;;;2.10;;
52674;SDS011;38569;52.722;6.440;2022-12-07T06:12:00;8.10;;;1.80;;
52674;SDS011;38569;52.722;6.440;2022-12-07T06:17:10;14.50;;;2.00;;
52674;SDS011;38569;52.722;6.440;2022-12-07T06:19:37;4.63;;;1.60;;
52674;SDS011;38569;52.722;6.440;2022-12-07T06:22:03;13.20;;;1.92;;
52674;SDS011;38569;52.722;6.440;2022-12-07T06:24:30;10.82;;;1.85;;
52674;SDS011;38569;52.722;6.440;2022-12-07T06:26:57;14.40;;;2.35;;
52674;SDS011;38569;52.722;6.440;2022-12-07T06:29:23;13.43;;;2.05;;
52674;SDS011;38569;52.722;6.440;2022-12-07T06:31:48;10.05;;;1.98;;
52674;SDS011;38569;52.722;6.440;2022-12-07T06:34:15;11.63;;;2.13;;
52674;SDS011;38569;52.722;6.440;2022-12-07T06:36:43;9.63;;;1.60;;
52674;SDS011;38569;52.722;6.440;2022-12-07T06:39:09;15.13;;;2.50;;
52674;SDS011;38569;52.722;6.440;2022-12-07T06:41:36;8.55;;;2.08;;
52674;SDS011;38569;52.722;6.440;2022-12-07T06:44:02;12.38;;;2.00;;
52674;SDS011;38569;52.722;6.440;2022-12-07T06:46:28;10.05;;;2.00;;
52674;SDS011;38569;52.722;6.440;2022-12-07T06:48:54;5.45;;;1.60;;
52674;SDS011;38569;52.722;6.440;2022-12-07T06:51:20;10.88;;;2.50;;
52674;SDS011;38569;52.722;6.440;2022-12-07T06:53:46;10.48;;;1.80;;
52674;SDS011;38569;52.722;6.440;2022-12-07T06:56:11;12.10;;;2.28;;
52674;SDS011;38569;52.722;6.440;2022-12-07T06:58:38;11.57;;;2.50;;
52674;SDS011;38569;52.722;6.440;2022-12-07T07:01:08;8.65;;;1.95;;
52674;SDS011;38569;52.722;6.440;2022-12-07T07:03:38;9.30;;;2.08;;
52674;SDS011;38569;52.722;6.440;2022-12-07T07:06:04;7.30;;;1.75;;
52674;SDS011;38569;52.722;6.440;2022-12-07T07:08:31;10.13;;;2.13;;
52674;SDS011;38569;52.722;6.440;2022-12-07T07:10:56;9.95;;;1.90;;
52674;SDS011;38569;52.722;6.440;2022-12-07T07:13:22;5.13;;;1.77;;
52674;SDS011;38569;52.722;6.440;2022-12-07T07:15:48;8.50;;;1.73;;
52674;SDS011;38569;52.722;6.440;2022-12-07T07:18:13;14.45;;;1.73;;
52674;SDS011;38569;52.722;6.440;2022-12-07T07:20:39;11.98;;;1.98;;
52674;SDS011;38569;52.722;6.440;2022-12-07T07:23:05;8.10;;;2.08;;
52674;SDS011;38569;52.722;6.440;2022-12-07T07:25:31;13.20;;;1.77;;
52674;SDS011;38569;52.722;6.440;2022-12-07T07:27:57;12.63;;;1.98;;
52674;SDS011;38569;52.722;6.440;2022-12-07T07:30:23;13.15;;;1.45;;
52674;SDS011;38569;52.722;6.440;2022-12-07T07:32:49;8.02;;;1.73;;
52674;SDS011;38569;52.722;6.440;2022-12-07T07:35:14;7.15;;;1.42;;
52674;SDS011;38569;52.722;6.440;2022-12-07T07:37:40;8.30;;;1.50;;
52674;SDS011;38569;52.722;6.440;2022-12-07T07:40:06;9.45;;;2.45;;
52674;SDS011;38569;52.722;6.440;2022-12-07T07:42:33;8.50;;;1.85;;
52674;SDS011;38569;52.722;6.440;2022-12-07T07:44:58;8.88;;;2.30;;
52674;SDS011;38569;52.722;6.440;2022-12-07T07:47:24;7.03;;;1.55;;
52674;SDS011;38569;52.722;6.440;2022-12-07T07:49:50;7.15;;;1.67;;
52674;SDS011;38569;52.722;6.440;2022-12-07T07:52:15;7.57;;;1.75;;
52674;SDS011;38569;52.722;6.440;2022-12-07T07:54:41;6.57;;;2.40;;
52674;SDS011;38569;52.722;6.440;2022-12-07T07:57:07;8.18;;;2.10;;
52674;SDS011;38569;52.722;6.440;2022-12-07T07:59:32;6.63;;;2.22;;
52674;SDS011;38569;52.722;6.440;2022-12-07T08:01:58;8.18;;;2.58;;
52674;SDS011;38569;52.722;6.440;2022-12-07T08:04:24;11.05;;;2.00;;
52674;SDS011;38569;52.722;6.440;2022-12-07T08:06:49;9.57;;;2.55;;
52674;SDS011;38569;52.722;6.440;2022-12-07T08:09:15;10.93;;;2.30;;
52674;SDS011;38569;52.722;6.440;2022-12-07T08:11:41;10.45;;;2.20;;
52674;SDS011;38569;52.722;6.440;2022-12-07T08:14:06;7.93;;;1.75;;
52674;SDS011;38569;52.722;6.440;2022-12-07T08:16:32;11.95;;;2.38;;
52674;SDS011;38569;52.722;6.440;2022-12-07T08:18:58;10.25;;;1.98;;
52674;SDS011;38569;52.722;6.440;2022-12-07T08:21:23;5.50;;;1.35;;
52674;SDS011;38569;52.722;6.440;2022-12-07T08:23:49;14.88;;;2.00;;
52674;SDS011;38569;52.722;6.440;2022-12-07T08:26:15;11.10;;;2.30;;
52674;SDS011;38569;52.722;6.440;2022-12-07T08:28:41;7.78;;;1.95;;
52674;SDS011;38569;52.722;6.440;2022-12-07T08:31:10;12.30;;;2.20;;
52674;SDS011;38569;52.722;6.440;2022-12-07T08:33:38;10.43;;;2.10;;
52674;SDS011;38569;52.722;6.440;2022-12-07T08:36:05;8.90;;;1.80;;
52674;SDS011;38569;52.722;6.440;2022-12-07T08:38:34;14.07;;;2.63;;
52674;SDS011;38569;52.722;6.440;2022-12-07T08:41:00;9.02;;;2.00;;
52674;SDS011;38569;52.722;6.440;2022-12-07T08:43:26;8.50;;;2.10;;
52674;SDS011;38569;52.722;6.440;2022-12-07T08:48:53;8.95;;;1.92;;
52674;SDS011;38569;52.722;6.440;2022-12-07T08:51:26;11.73;;;2.15;;
52674;SDS011;38569;52.722;6.440;2022-12-07T08:53:53;8.43;;;1.80;;
52674;SDS011;38569;52.722;6.440;2022-12-07T08:56:21;12.32;;;2.72;;
52674;SDS011;38569;52.722;6.440;2022-12-07T08:58:47;10.27;;;2.80;;
52674;SDS011;38569;52.722;6.440;2022-12-07T09:01:13;6.25;;;1.90;;
52674;SDS011;38569;52.722;6.440;2022-12-07T09:03:39;22.65;;;3.13;;
52674;SDS011;38569;52.722;6.440;2022-12-07T09:06:05;7.50;;;2.85;;
52674;SDS011;38569;52.722;6.440;2022-12-07T09:08:32;18.73;;;2.45;;
52674;SDS011;38569;52.722;6.440;2022-12-07T09:11:01;11.75;;;2.30;;
52674;SDS011;38569;52.722;6.440;2022-12-07T09:13:27;8.15;;;1.90;;
52674;SDS011;38569;52.722;6.440;2022-12-07T09:15:52;10.68;;;2.38;;
52674;SDS011;38569;52.722;6.440;2022-12-07T09:18:18;11.68;;;2.40;;
52674;SDS011;38569;52.722;6.440;2022-12-07T09:20:44;11.98;;;2.22;;
52674;SDS011;38569;52.722;6.440;2022-12-07T09:23:09;13.45;;;3.20;;
52674;SDS011;38569;52.722;6.440;2022-12-07T09:25:35;43.50;;;5.40;;
52674;SDS011;38569;52.722;6.440;2022-12-07T09:28:01;19.95;;;2.80;;
52674;SDS011;38569;52.722;6.440;2022-12-07T09:30:27;13.77;;;2.60;;
52674;SDS011;38569;52.722;6.440;2022-12-07T09:32:53;8.05;;;2.75;;
52674;SDS011;38569;52.722;6.440;2022-12-07T09:35:20;9.48;;;2.50;;
52674;SDS011;38569;52.722;6.440;2022-12-07T09:37:45;13.63;;;2.45;;
52674;SDS011;38569;52.722;6.440;2022-12-07T09:40:11;11.82;;;2.40;;
52674;SDS011;38569;52.722;6.440;2022-12-07T09:42:39;8.30;;;2.25;;
52674;SDS011;38569;52.722;6.440;2022-12-07T09:45:14;12.18;;;2.45;;
52674;SDS011;38569;52.722;6.440;2022-12-07T09:47:43;8.53;;;2.43;;
52674;SDS011;38569;52.722;6.440;2022-12-07T09:50:16;13.50;;;2.88;;
52674;SDS011;38569;52.722;6.440;2022-12-07T09:52:46;13.90;;;2.67;;
52674;SDS011;38569;52.722;6.440;2022-12-07T09:55:19;12.20;;;2.15;;
52674;SDS011;38569;52.722;6.440;2022-12-07T09:57:52;16.60;;;2.53;;
52674;SDS011;38569;52.722;6.440;2022-12-07T10:00:19;7.85;;;1.70;;
52674;SDS011;38569;52.722;6.440;2022-12-07T10:02:47;8.35;;;2.00;;
52674;SDS011;38569;52.722;6.440;2022-12-07T10:05:21;8.75;;;2.28;;
52674;SDS011;38569;52.722;6.440;2022-12-07T10:07:55;8.05;;;1.65;;
52674;SDS011;38569;52.722;6.440;2022-12-07T10:10:26;16.13;;;2.88;;
52674;SDS011;38569;52.722;6.440;2022-12-07T10:15:40;8.38;;;1.88;;
52674;SDS011;38569;52.722;6.440;2022-12-07T10:23:27;8.02;;;1.58;;
52674;SDS011;38569;52.722;6.440;2022-12-07T10:25:52;11.60;;;2.38;;
52674;SDS011;38569;52.722;6.440;2022-12-07T10:28:20;13.10;;;2.03;;
52674;SDS011;38569;52.722;6.440;2022-12-07T10:39:09;9.63;;;2.03;;
52674;SDS011;38569;52.722;6.440;2022-12-07T10:41:54;11.25;;;2.00;;
52674;SDS011;38569;52.722;6.440;2022-12-07T10:44:22;12.13;;;2.20;;
52674;SDS011;38569;52.722;6.440;2022-12-07T11:00:21;8.32;;;1.58;;
52674;SDS011;38569;52.722;6.440;2022-12-07T11:05:54;9.40;;;2.05;;
52674;SDS011;38569;52.722;6.440;2022-12-07T11:14:05;7.72;;;1.77;;
52674;SDS011;38569;52.722;6.440;2022-12-07T11:16:58;4.28;;;1.55;;
52674;SDS011;38569;52.722;6.440;2022-12-07T11:24:59;7.82;;;1.77;;
52674;SDS011;38569;52.722;6.440;2022-12-07T11:27:49;9.77;;;2.25;;
52674;SDS011;38569;52.722;6.440;2022-12-07T11:30:19;8.15;;;1.60;;
52674;SDS011;38569;52.722;6.440;2022-12-07T11:32:59;11.15;;;2.03;;
52674;SDS011;38569;52.722;6.440;2022-12-07T11:38:22;14.95;;;2.30;;
52674;SDS011;38569;52.722;6.440;2022-12-07T11:40:54;12.82;;;2.40;;
52674;SDS011;38569;52.722;6.440;2022-12-07T11:43:37;9.40;;;1.70;;
52674;SDS011;38569;52.722;6.440;2022-12-07T11:46:15;12.52;;;3.25;;
52674;SDS011;38569;52.722;6.440;2022-12-07T11:48:58;7.90;;;1.98;;
52674;SDS011;38569;52.722;6.440;2022-12-07T11:51:47;12.45;;;2.20;;
52674;SDS011;38569;52.722;6.440;2022-12-07T11:54:17;10.35;;;3.30;;
52674;SDS011;38569;52.722;6.440;2022-12-07T11:56:47;7.80;;;1.80;;
52674;SDS011;38569;52.722;6.440;2022-12-07T11:59:21;20.60;;;2.25;;
52674;SDS011;38569;52.722;6.440;2022-12-07T12:02:10;8.63;;;1.67;;
52674;SDS011;38569;52.722;6.440;2022-12-07T12:07:25;10.60;;;2.88;;
52674;SDS011;38569;52.722;6.440;2022-12-07T12:09:53;6.00;;;1.75;;
52674;SDS011;38569;52.722;6.440;2022-12-07T12:21:04;12.75;;;1.90;;
52674;SDS011;38569;52.722;6.440;2022-12-07T12:26:06;14.65;;;2.08;;
52674;SDS011;38569;52.722;6.440;2022-12-07T12:33:52;8.73;;;1.70;;
52674;SDS011;38569;52.722;6.440;2022-12-07T12:36:24;9.68;;;1.85;;
52674;SDS011;38569;52.722;6.440;2022-12-07T12:46:54;10.77;;;3.25;;
52674;SDS011;38569;52.722;6.440;2022-12-07T12:54:38;8.75;;;1.77;;
52674;SDS011;38569;52.722;6.440;2022-12-07T12:57:24;6.97;;;2.25;;
52674;SDS011;38569;52.722;6.440;2022-12-07T13:10:21;9.10;;;1.90;;
52674;SDS011;38569;52.722;6.440;2022-12-07T13:15:38;7.82;;;1.48;;
52674;SDS011;38569;52.722;6.440;2022-12-07T13:18:36;11.30;;;1.83;;
52674;SDS011;38569;52.722;6.440;2022-12-07T13:31:41;10.27;;;2.42;;
52674;SDS011;38569;52.722;6.440;2022-12-07T13:36:57;11.57;;;3.50;;
52674;SDS011;38569;52.722;6.440;2022-12-07T13:39:25;9.80;;;2.03;;
52674;SDS011;38569;52.722;6.440;2022-12-07T13:41:52;9.30;;;1.73;;
52674;SDS011;38569;52.722;6.440;2022-12-07T13:44:23;7.68;;;1.65;;
52674;SDS011;38569;52.722;6.440;2022-12-07T13:47:09;10.65;;;2.05;;
52674;SDS011;38569;52.722;6.440;2022-12-07T13:50:00;7.05;;;1.38;;
52674;SDS011;38569;52.722;6.440;2022-12-07T13:52:27;7.15;;;1.95;;
52674;SDS011;38569;52.722;6.440;2022-12-07T13:57:32;7.70;;;1.75;;
52674;SDS011;38569;52.722;6.440;2022-12-07T14:00:00;8.32;;;1.92;;
52674;SDS011;38569;52.722;6.440;2022-12-07T14:02:29;7.93;;;1.60;;
52674;SDS011;38569;52.722;6.440;2022-12-07T14:07:49;9.20;;;2.00;;
52674;SDS011;38569;52.722;6.440;2022-12-07T14:12:52;9.85;;;1.95;;
52674;SDS011;38569;52.722;6.440;2022-12-07T14:15:23;7.50;;;2.00;;
52674;SDS011;38569;52.722;6.440;2022-12-07T14:17:56;7.38;;;1.38;;
52674;SDS011;38569;52.722;6.440;2022-12-07T14:20:33;9.25;;;1.98;;
52674;SDS011;38569;52.722;6.440;2022-12-07T14:23:02;13.20;;;1.85;;
52674;SDS011;38569;52.722;6.440;2022-12-07T14:26:03;14.45;;;1.85;;
52674;SDS011;38569;52.722;6.440;2022-12-07T14:31:00;16.48;;;2.10;;
52674;SDS011;38569;52.722;6.440;2022-12-07T14:33:26;8.77;;;2.00;;
52674;SDS011;38569;52.722;6.440;2022-12-07T14:35:52;11.98;;;1.70;;
52674;SDS011;38569;52.722;6.440;2022-12-07T14:38:23;7.25;;;1.63;;
52674;SDS011;38569;52.722;6.440;2022-12-07T14:40:50;7.95;;;1.60;;
52674;SDS011;38569;52.722;6.440;2022-12-07T14:43:17;9.60;;;1.50;;
52674;SDS011;38569;52.722;6.440;2022-12-07T14:45:44;9.15;;;1.30;;
52674;SDS011;38569;52.722;6.440;2022-12-07T14:48:11;6.93;;;1.40;;
52674;SDS011;38569;52.722;6.440;2022-12-07T14:50:42;5.15;;;1.58;;
52674;SDS011;38569;52.722;6.440;2022-12-07T14:53:14;6.50;;;1.67;;
52674;SDS011;38569;52.722;6.440;2022-12-07T14:55:42;9.45;;;1.73;;
52674;SDS011;38569;52.722;6.440;2022-12-07T14:58:12;8.07;;;1.80;;
52674;SDS011;38569;52.722;6.440;2022-12-07T15:00:39;8.15;;;1.77;;
52674;SDS011;38569;52.722;6.440;2022-12-07T15:03:05;5.40;;;1.42;;
52674;SDS011;38569;52.722;6.440;2022-12-07T15:05:31;4.45;;;2.33;;
52674;SDS011;38569;52.722;6.440;2022-12-07T15:07:57;9.90;;;3.03;;
52674;SDS011;38569;52.722;6.440;2022-12-07T15:10:27;8.18;;;3.50;;
52674;SDS011;38569;52.722;6.440;2022-12-07T15:13:00;9.83;;;3.10;;
52674;SDS011;38569;52.722;6.440;2022-12-07T15:15:46;9.73;;;2.95;;
52674;SDS011;38569;52.722;6.440;2022-12-07T15:18:13;7.88;;;3.50;;
52674;SDS011;38569;52.722;6.440;2022-12-07T15:20:39;8.32;;;3.65;;
52674;SDS011;38569;52.722;6.440;2022-12-07T15:23:05;13.02;;;3.00;;
52674;SDS011;38569;52.722;6.440;2022-12-07T15:25:31;13.55;;;2.50;;
52674;SDS011;38569;52.722;6.440;2022-12-07T15:27:56;19.55;;;4.55;;
52674;SDS011;38569;52.722;6.440;2022-12-07T15:30:22;13.82;;;5.35;;
52674;SDS011;38569;52.722;6.440;2022-12-07T15:32:51;19.90;;;9.23;;
52674;SDS011;38569;52.722;6.440;2022-12-07T15:35:17;22.50;;;7.63;;
52674;SDS011;38569;52.722;6.440;2022-12-07T15:37:44;20.80;;;6.10;;
52674;SDS011;38569;52.722;6.440;2022-12-07T15:40:10;12.52;;;3.50;;
52674;SDS011;38569;52.722;6.440;2022-12-07T15:42:36;10.75;;;2.53;;
52674;SDS011;38569;52.722;6.440;2022-12-07T15:45:02;8.52;;;4.72;;
52674;SDS011;38569;52.722;6.440;2022-12-07T15:47:40;17.58;;;5.88;;
52674;SDS011;38569;52.722;6.440;2022-12-07T15:50:08;21.05;;;9.32;;
52674;SDS011;38569;52.722;6.440;2022-12-07T15:52:41;17.10;;;7.95;;
52674;SDS011;38569;52.722;6.440;2022-12-07T15:55:08;45.55;;;7.55;;
52674;SDS011;38569;52.722;6.440;2022-12-07T15:57:35;15.57;;;3.10;;
52674;SDS011;38569;52.722;6.440;2022-12-07T16:00:03;6.50;;;2.80;;
52674;SDS011;38569;52.722;6.440;2022-12-07T16:02:29;5.22;;;2.38;;
52674;SDS011;38569;52.722;6.440;2022-12-07T16:04:55;10.63;;;2.40;;
52674;SDS011;38569;52.722;6.440;2022-12-07T16:07:21;12.90;;;3.00;;
52674;SDS011;38569;52.722;6.440;2022-12-07T16:09:47;26.63;;;3.28;;
52674;SDS011;38569;52.722;6.440;2022-12-07T16:12:14;7.47;;;2.58;;
52674;SDS011;38569;52.722;6.440;2022-12-07T16:14:40;4.68;;;1.65;;
52674;SDS011;38569;52.722;6.440;2022-12-07T16:17:07;6.57;;;2.20;;
52674;SDS011;38569;52.722;6.440;2022-12-07T16:19:34;4.75;;;1.42;;
52674;SDS011;38569;52.722;6.440;2022-12-07T16:22:00;6.03;;;1.88;;
52674;SDS011;38569;52.722;6.440;2022-12-07T16:24:27;4.88;;;1.83;;
52674;SDS011;38569;52.722;6.440;2022-12-07T16:26:53;4.63;;;1.83;;
52674;SDS011;38569;52.722;6.440;2022-12-07T16:29:19;4.90;;;1.40;;
52674;SDS011;38569;52.722;6.440;2022-12-07T16:31:47;6.00;;;1.42;;
52674;SDS011;38569;52.722;6.440;2022-12-07T16:34:13;5.00;;;1.95;;
52674;SDS011;38569;52.722;6.440;2022-12-07T16:36:39;4.60;;;2.60;;
52674;SDS011;38569;52.722;6.440;2022-12-07T16:39:05;6.95;;;2.40;;
52674;SDS011;38569;52.722;6.440;2022-12-07T16:41:31;10.63;;;6.30;;
52674;SDS011;38569;52.722;6.440;2022-12-07T16:44:01;6.53;;;2.63;;
52674;SDS011;38569;52.722;6.440;2022-12-07T16:46:28;7.80;;;2.50;;
52674;SDS011;38569;52.722;6.440;2022-12-07T16:48:54;11.93;;;3.00;;
52674;SDS011;38569;52.722;6.440;2022-12-07T16:51:20;10.02;;;2.40;;
52674;SDS011;38569;52.722;6.440;2022-12-07T16:53:46;6.10;;;1.90;;
52674;SDS011;38569;52.722;6.440;2022-12-07T16:56:12;11.30;;;2.80;;
52674;SDS011;38569;52.722;6.440;2022-12-07T16:58:40;13.25;;;4.07;;
52674;SDS011;38569;52.722;6.440;2022-12-07T17:01:17;11.57;;;3.83;;
52674;SDS011;38569;52.722;6.440;2022-12-07T17:06:18;10.25;;;3.95;;
52674;SDS011;38569;52.722;6.440;2022-12-07T17:08:46;6.93;;;2.72;;
52674;SDS011;38569;52.722;6.440;2022-12-07T17:11:13;8.30;;;4.70;;
52674;SDS011;38569;52.722;6.440;2022-12-07T17:13:41;10.60;;;3.67;;
52674;SDS011;38569;52.722;6.440;2022-12-07T17:16:26;11.73;;;3.75;;
52674;SDS011;38569;52.722;6.440;2022-12-07T17:18:51;14.52;;;6.57;;
52674;SDS011;38569;52.722;6.440;2022-12-07T17:21:17;17.52;;;5.32;;